Archival Weather

Republic

Farmingdale, New York (KFRG)

Report from: Friday, January 26, 2024 5:53 AM EST
Current time: Friday, June 21, 2024 9:19 PM EDT

Current weather – Weather history – Daily summaries
Weather forecast

Present weatherMist
Temperature6.1°C (43.0°F)
Wind chill3.1°C (37.7°F)
Dew point5.0°C (41.0°F)
Winds 8 kts (4.1 m/s, 9.2 mph) East-Northeast (70°)
Visibility4 mi. (6.4 km)
Clouds Ceiling: Overcast 600 ft. (183 m)
Altimeter30.10 in.Hg (1019 mB)
Relative humidity93 %
Density altitude-1,155 ft. (-352 m)
Sea-level pressure101.9 kPa (1019 mB, 30.10 in.Hg)
Remarks Fully automated report
Automated weather observing station with precipitation discriminator
Present weather sensor not operating
Ceiling
Flight conditions Instrument Meteorological Conditions
Raw dataKFRG 261053Z AUTO 07008KT 4SM BR OVC006 06/05 A3010 RMK AO2 CIG 005V009 SLP194 T00610050 PWINO
An error has occurred. This application may no longer respond until reloaded. Reload 🗙